sensor_id;sensor_type;location;lat;lon;timestamp;temperature;humidity
71396;DHT22;59888;55.814;37.132;2023-04-20T00:00:40;9.54;27.79
71396;DHT22;59888;55.814;37.132;2023-04-20T00:03:07;9.54;27.76
71396;DHT22;59888;55.814;37.132;2023-04-20T00:05:34;9.51;27.81
71396;DHT22;59888;55.814;37.132;2023-04-20T00:07:59;9.48;27.87
71396;DHT22;59888;55.814;37.132;2023-04-20T00:10:25;9.48;27.94
71396;DHT22;59888;55.814;37.132;2023-04-20T00:12:51;9.49;27.87
71396;DHT22;59888;55.814;37.132;2023-04-20T00:15:17;9.49;27.87
71396;DHT22;59888;55.814;37.132;2023-04-20T00:17:43;9.45;28.00
71396;DHT22;59888;55.814;37.132;2023-04-20T00:20:11;9.40;28.18
71396;DHT22;59888;55.814;37.132;2023-04-20T00:22:37;9.39;28.25
71396;DHT22;59888;55.814;37.132;2023-04-20T00:25:03;9.39;28.55
71396;DHT22;59888;55.814;37.132;2023-04-20T00:27:29;9.35;28.86
71396;DHT22;59888;55.814;37.132;2023-04-20T00:29:55;9.31;29.08
71396;DHT22;59888;55.814;37.132;2023-04-20T00:32:22;9.32;29.17
71396;DHT22;59888;55.814;37.132;2023-04-20T00:34:48;9.31;29.48
71396;DHT22;59888;55.814;37.132;2023-04-20T00:37:15;9.27;29.82
71396;DHT22;59888;55.814;37.132;2023-04-20T00:39:41;9.23;30.01
71396;DHT22;59888;55.814;37.132;2023-04-20T00:42:07;9.15;30.16
71396;DHT22;59888;55.814;37.132;2023-04-20T00:44:33;9.14;30.22
71396;DHT22;59888;55.814;37.132;2023-04-20T00:47:00;9.06;30.33
71396;DHT22;59888;55.814;37.132;2023-04-20T00:49:28;9.02;30.48
71396;DHT22;59888;55.814;37.132;2023-04-20T00:51:58;9.00;30.77
71396;DHT22;59888;55.814;37.132;2023-04-20T00:54:25;8.95;30.61
71396;DHT22;59888;55.814;37.132;2023-04-20T00:56:53;8.85;30.68
71396;DHT22;59888;55.814;37.132;2023-04-20T00:59:20;8.74;30.81
71396;DHT22;59888;55.814;37.132;2023-04-20T01:01:46;8.62;30.71
71396;DHT22;59888;55.814;37.132;2023-04-20T01:04:13;8.57;30.83
71396;DHT22;59888;55.814;37.132;2023-04-20T01:06:41;8.55;30.89
71396;DHT22;59888;55.814;37.132;2023-04-20T01:09:06;8.58;30.92
71396;DHT22;59888;55.814;37.132;2023-04-20T01:11:32;8.49;30.92
71396;DHT22;59888;55.814;37.132;2023-04-20T01:13:59;8.37;30.87
71396;DHT22;59888;55.814;37.132;2023-04-20T01:16:25;8.32;30.96
71396;DHT22;59888;55.814;37.132;2023-04-20T01:18:51;8.35;30.86
71396;DHT22;59888;55.814;37.132;2023-04-20T01:21:19;8.34;30.83
71396;DHT22;59888;55.814;37.132;2023-04-20T01:23:46;8.30;30.85
71396;DHT22;59888;55.814;37.132;2023-04-20T01:26:14;8.23;31.03
71396;DHT22;59888;55.814;37.132;2023-04-20T01:28:41;8.23;30.87
71396;DHT22;59888;55.814;37.132;2023-04-20T01:31:08;8.22;30.96
71396;DHT22;59888;55.814;37.132;2023-04-20T01:33:34;8.13;30.99
71396;DHT22;59888;55.814;37.132;2023-04-20T01:36:01;8.05;31.16
71396;DHT22;59888;55.814;37.132;2023-04-20T01:38:28;8.07;31.06
71396;DHT22;59888;55.814;37.132;2023-04-20T01:41:01;8.03;31.10
71396;DHT22;59888;55.814;37.132;2023-04-20T01:43:26;7.98;31.12
71396;DHT22;59888;55.814;37.132;2023-04-20T01:45:52;7.90;31.32
71396;DHT22;59888;55.814;37.132;2023-04-20T01:48:18;7.87;31.40
71396;DHT22;59888;55.814;37.132;2023-04-20T01:50:44;7.79;31.45
71396;DHT22;59888;55.814;37.132;2023-04-20T01:53:10;7.79;31.57
71396;DHT22;59888;55.814;37.132;2023-04-20T01:55:38;7.79;31.45
71396;DHT22;59888;55.814;37.132;2023-04-20T01:58:04;7.70;31.67
71396;DHT22;59888;55.814;37.132;2023-04-20T02:00:29;7.62;31.90
71396;DHT22;59888;55.814;37.132;2023-04-20T02:02:57;7.59;31.88
71396;DHT22;59888;55.814;37.132;2023-04-20T02:05:23;7.60;31.88
71396;DHT22;59888;55.814;37.132;2023-04-20T02:07:49;7.61;31.83
71396;DHT22;59888;55.814;37.132;2023-04-20T02:10:16;7.60;31.76
71396;DHT22;59888;55.814;37.132;2023-04-20T02:12:44;7.58;31.82
71396;DHT22;59888;55.814;37.132;2023-04-20T02:15:10;7.59;31.86
71396;DHT22;59888;55.814;37.132;2023-04-20T02:17:56;7.50;32.02
71396;DHT22;59888;55.814;37.132;2023-04-20T02:20:22;7.47;32.02
71396;DHT22;59888;55.814;37.132;2023-04-20T02:22:48;7.47;31.97
71396;DHT22;59888;55.814;37.132;2023-04-20T02:25:14;7.42;32.10
71396;DHT22;59888;55.814;37.132;2023-04-20T02:27:41;7.39;32.35
71396;DHT22;59888;55.814;37.132;2023-04-20T02:30:10;7.40;32.28
71396;DHT22;59888;55.814;37.132;2023-04-20T02:32:37;7.42;32.22
71396;DHT22;59888;55.814;37.132;2023-04-20T02:35:03;7.44;32.31
71396;DHT22;59888;55.814;37.132;2023-04-20T02:37:30;7.44;32.35
71396;DHT22;59888;55.814;37.132;2023-04-20T02:39:57;7.41;32.41
71396;DHT22;59888;55.814;37.132;2023-04-20T02:42:25;7.35;32.57
71396;DHT22;59888;55.814;37.132;2023-04-20T02:44:51;7.37;32.65
71396;DHT22;59888;55.814;37.132;2023-04-20T02:47:17;7.39;32.70
71396;DHT22;59888;55.814;37.132;2023-04-20T02:49:43;7.44;32.64
71396;DHT22;59888;55.814;37.132;2023-04-20T02:52:10;7.44;32.53
71396;DHT22;59888;55.814;37.132;2023-04-20T02:54:36;7.44;32.67
71396;DHT22;59888;55.814;37.132;2023-04-20T02:57:02;7.39;33.01
71396;DHT22;59888;55.814;37.132;2023-04-20T02:59:28;7.35;33.05
71396;DHT22;59888;55.814;37.132;2023-04-20T03:02:09;7.44;33.06
71396;DHT22;59888;55.814;37.132;2023-04-20T03:04:36;7.56;32.90
71396;DHT22;59888;55.814;37.132;2023-04-20T03:07:16;7.67;32.82
71396;DHT22;59888;55.814;37.132;2023-04-20T03:09:43;7.67;32.76
71396;DHT22;59888;55.814;37.132;2023-04-20T03:12:25;7.63;33.08
71396;DHT22;59888;55.814;37.132;2023-04-20T03:15:18;7.59;32.96
71396;DHT22;59888;55.814;37.132;2023-04-20T03:18:04;7.56;33.40
71396;DHT22;59888;55.814;37.132;2023-04-20T03:20:30;7.56;33.33
71396;DHT22;59888;55.814;37.132;2023-04-20T03:22:57;7.57;33.51
71396;DHT22;59888;55.814;37.132;2023-04-20T03:25:24;7.63;33.42
71396;DHT22;59888;55.814;37.132;2023-04-20T03:27:58;7.74;33.47
71396;DHT22;59888;55.814;37.132;2023-04-20T03:30:24;7.86;33.47
71396;DHT22;59888;55.814;37.132;2023-04-20T03:33:08;8.00;33.31
71396;DHT22;59888;55.814;37.132;2023-04-20T03:35:34;8.13;33.15
71396;DHT22;59888;55.814;37.132;2023-04-20T03:38:00;8.19;33.12
71396;DHT22;59888;55.814;37.132;2023-04-20T03:40:26;8.31;33.10
71396;DHT22;59888;55.814;37.132;2023-04-20T03:42:52;8.46;32.99
71396;DHT22;59888;55.814;37.132;2023-04-20T03:45:18;8.53;32.98
71396;DHT22;59888;55.814;37.132;2023-04-20T03:47:43;8.63;32.98
71396;DHT22;59888;55.814;37.132;2023-04-20T03:50:09;8.67;33.11
71396;DHT22;59888;55.814;37.132;2023-04-20T03:52:37;8.81;32.91
71396;DHT22;59888;55.814;37.132;2023-04-20T03:55:04;8.97;32.83
71396;DHT22;59888;55.814;37.132;2023-04-20T03:57:32;9.12;32.56
71396;DHT22;59888;55.814;37.132;2023-04-20T03:59:59;9.22;32.47
71396;DHT22;59888;55.814;37.132;2023-04-20T04:02:32;9.36;32.32
71396;DHT22;59888;55.814;37.132;2023-04-20T04:04:59;9.46;32.71
71396;DHT22;59888;55.814;37.132;2023-04-20T04:07:25;9.59;32.37
71396;DHT22;59888;55.814;37.132;2023-04-20T04:09:51;9.79;32.04
71396;DHT22;59888;55.814;37.132;2023-04-20T04:12:17;9.93;31.90
71396;DHT22;59888;55.814;37.132;2023-04-20T04:14:45;10.09;31.87
71396;DHT22;59888;55.814;37.132;2023-04-20T04:17:13;10.25;31.96
71396;DHT22;59888;55.814;37.132;2023-04-20T04:19:40;10.37;31.16
71396;DHT22;59888;55.814;37.132;2023-04-20T04:22:08;10.52;31.35
71396;DHT22;59888;55.814;37.132;2023-04-20T04:24:39;10.66;31.28
71396;DHT22;59888;55.814;37.132;2023-04-20T04:27:08;10.71;30.96
71396;DHT22;59888;55.814;37.132;2023-04-20T04:29:41;10.81;30.96
71396;DHT22;59888;55.814;37.132;2023-04-20T04:32:11;10.95;30.93
71396;DHT22;59888;55.814;37.132;2023-04-20T04:34:38;11.11;30.51
71396;DHT22;59888;55.814;37.132;2023-04-20T04:37:04;11.30;29.97
71396;DHT22;59888;55.814;37.132;2023-04-20T04:39:44;11.45;30.18
71396;DHT22;59888;55.814;37.132;2023-04-20T04:42:19;11.60;30.28
71396;DHT22;59888;55.814;37.132;2023-04-20T04:44:46;11.73;29.87
71396;DHT22;59888;55.814;37.132;2023-04-20T04:47:17;11.87;29.58
71396;DHT22;59888;55.814;37.132;2023-04-20T04:49:46;12.00;29.49
71396;DHT22;59888;55.814;37.132;2023-04-20T04:52:12;12.14;30.18
71396;DHT22;59888;55.814;37.132;2023-04-20T04:54:38;12.25;29.29
71396;DHT22;59888;55.814;37.132;2023-04-20T04:57:04;12.34;29.13
71396;DHT22;59888;55.814;37.132;2023-04-20T04:59:30;12.45;29.42
71396;DHT22;59888;55.814;37.132;2023-04-20T05:01:56;12.56;29.29
71396;DHT22;59888;55.814;37.132;2023-04-20T05:04:22;12.67;28.84
71396;DHT22;59888;55.814;37.132;2023-04-20T05:06:47;12.78;29.13
71396;DHT22;59888;55.814;37.132;2023-04-20T05:09:13;12.90;29.07
71396;DHT22;59888;55.814;37.132;2023-04-20T05:11:39;13.04;28.62
71396;DHT22;59888;55.814;37.132;2023-04-20T05:14:05;13.16;28.96
71396;DHT22;59888;55.814;37.132;2023-04-20T05:16:31;13.30;28.72
71396;DHT22;59888;55.814;37.132;2023-04-20T05:18:56;13.45;28.45
71396;DHT22;59888;55.814;37.132;2023-04-20T05:21:22;13.61;28.39
71396;DHT22;59888;55.814;37.132;2023-04-20T05:23:48;13.74;28.21
71396;DHT22;59888;55.814;37.132;2023-04-20T05:26:14;13.88;27.81
71396;DHT22;59888;55.814;37.132;2023-04-20T05:28:40;13.99;28.07
71396;DHT22;59888;55.814;37.132;2023-04-20T05:31:06;14.11;27.84
71396;DHT22;59888;55.814;37.132;2023-04-20T05:33:32;14.22;27.77
71396;DHT22;59888;55.814;37.132;2023-04-20T05:35:58;14.33;27.75
71396;DHT22;59888;55.814;37.132;2023-04-20T05:38:24;14.48;27.68
71396;DHT22;59888;55.814;37.132;2023-04-20T05:40:50;14.64;27.61
71396;DHT22;59888;55.814;37.132;2023-04-20T05:43:17;14.77;27.33
71396;DHT22;59888;55.814;37.132;2023-04-20T05:45:45;14.93;27.22
71396;DHT22;59888;55.814;37.132;2023-04-20T05:48:11;15.10;26.67
71396;DHT22;59888;55.814;37.132;2023-04-20T05:50:36;15.15;26.86
71396;DHT22;59888;55.814;37.132;2023-04-20T05:53:02;15.25;26.81
71396;DHT22;59888;55.814;37.132;2023-04-20T05:55:28;15.45;26.70
71396;DHT22;59888;55.814;37.132;2023-04-20T05:57:54;15.57;26.43
71396;DHT22;59888;55.814;37.132;2023-04-20T06:00:20;15.69;26.33
71396;DHT22;59888;55.814;37.132;2023-04-20T06:02:46;15.81;26.36
71396;DHT22;59888;55.814;37.132;2023-04-20T06:05:12;15.96;26.15
71396;DHT22;59888;55.814;37.132;2023-04-20T06:07:38;16.07;25.91
71396;DHT22;59888;55.814;37.132;2023-04-20T06:10:04;16.17;25.84
71396;DHT22;59888;55.814;37.132;2023-04-20T06:12:31;16.33;25.81
71396;DHT22;59888;55.814;37.132;2023-04-20T06:14:57;16.45;25.59
71396;DHT22;59888;55.814;37.132;2023-04-20T06:17:23;16.55;25.42
71396;DHT22;59888;55.814;37.132;2023-04-20T06:19:50;16.62;25.33
71396;DHT22;59888;55.814;37.132;2023-04-20T06:22:16;16.76;25.18
71396;DHT22;59888;55.814;37.132;2023-04-20T06:24:43;16.90;25.07
71396;DHT22;59888;55.814;37.132;2023-04-20T06:27:09;17.04;24.90
71396;DHT22;59888;55.814;37.132;2023-04-20T06:29:35;17.18;24.78
71396;DHT22;59888;55.814;37.132;2023-04-20T06:32:01;17.29;24.55
71396;DHT22;59888;55.814;37.132;2023-04-20T06:34:27;17.37;24.38
71396;DHT22;59888;55.814;37.132;2023-04-20T06:36:53;17.48;24.24
71396;DHT22;59888;55.814;37.132;2023-04-20T06:39:18;17.53;24.00
71396;DHT22;59888;55.814;37.132;2023-04-20T06:41:44;17.60;23.99
71396;DHT22;59888;55.814;37.132;2023-04-20T06:44:13;17.64;23.90
71396;DHT22;59888;55.814;37.132;2023-04-20T06:46:38;17.75;23.72
71396;DHT22;59888;55.814;37.132;2023-04-20T06:49:04;17.81;23.62
71396;DHT22;59888;55.814;37.132;2023-04-20T06:51:33;17.85;23.34
71396;DHT22;59888;55.814;37.132;2023-04-20T06:53:59;17.81;23.45
71396;DHT22;59888;55.814;37.132;2023-04-20T06:56:24;17.85;23.40
71396;DHT22;59888;55.814;37.132;2023-04-20T06:58:50;17.92;23.53
71396;DHT22;59888;55.814;37.132;2023-04-20T07:01:18;18.03;23.37
71396;DHT22;59888;55.814;37.132;2023-04-20T07:03:43;18.12;23.21
71396;DHT22;59888;55.814;37.132;2023-04-20T07:06:12;18.18;23.22
71396;DHT22;59888;55.814;37.132;2023-04-20T07:08:39;18.26;23.11
71396;DHT22;59888;55.814;37.132;2023-04-20T07:11:05;18.39;22.76
71396;DHT22;59888;55.814;37.132;2023-04-20T07:13:31;18.41;22.59
71396;DHT22;59888;55.814;37.132;2023-04-20T07:15:57;18.46;22.75
71396;DHT22;59888;55.814;37.132;2023-04-20T07:18:23;18.58;22.61
71396;DHT22;59888;55.814;37.132;2023-04-20T07:20:49;18.62;22.25
71396;DHT22;59888;55.814;37.132;2023-04-20T07:23:14;18.64;22.37
71396;DHT22;59888;55.814;37.132;2023-04-20T07:25:40;18.72;22.26
71396;DHT22;59888;55.814;37.132;2023-04-20T07:28:06;18.74;22.18
71396;DHT22;59888;55.814;37.132;2023-04-20T07:30:32;18.79;22.01
71396;DHT22;59888;55.814;37.132;2023-04-20T07:32:57;18.79;21.92
71396;DHT22;59888;55.814;37.132;2023-04-20T07:35:23;18.81;21.99
71396;DHT22;59888;55.814;37.132;2023-04-20T07:37:49;18.91;21.89
71396;DHT22;59888;55.814;37.132;2023-04-20T07:40:15;19.01;21.64
71396;DHT22;59888;55.814;37.132;2023-04-20T07:42:41;19.15;21.63
71396;DHT22;59888;55.814;37.132;2023-04-20T07:45:08;19.31;21.05
71396;DHT22;59888;55.814;37.132;2023-04-20T07:47:36;19.45;20.73
71396;DHT22;59888;55.814;37.132;2023-04-20T07:50:05;19.51;20.37
71396;DHT22;59888;55.814;37.132;2023-04-20T07:52:33;19.62;20.73
71396;DHT22;59888;55.814;37.132;2023-04-20T07:54:58;19.76;20.37
71396;DHT22;59888;55.814;37.132;2023-04-20T07:57:27;19.95;19.82
71396;DHT22;59888;55.814;37.132;2023-04-20T07:59:53;19.99;19.28
71396;DHT22;59888;55.814;37.132;2023-04-20T08:02:20;20.07;18.31
71396;DHT22;59888;55.814;37.132;2023-04-20T08:04:45;20.11;18.06
71396;DHT22;59888;55.814;37.132;2023-04-20T08:07:12;20.05;17.39
71396;DHT22;59888;55.814;37.132;2023-04-20T08:09:38;20.14;18.56
71396;DHT22;59888;55.814;37.132;2023-04-20T08:12:04;20.27;18.85
71396;DHT22;59888;55.814;37.132;2023-04-20T08:14:30;20.33;18.02
71396;DHT22;59888;55.814;37.132;2023-04-20T08:16:56;20.32;16.90
71396;DHT22;59888;55.814;37.132;2023-04-20T08:19:22;20.30;18.73
71396;DHT22;59888;55.814;37.132;2023-04-20T08:21:50;20.46;18.04
71396;DHT22;59888;55.814;37.132;2023-04-20T08:24:15;20.61;17.96
71396;DHT22;59888;55.814;37.132;2023-04-20T08:26:42;20.76;18.54
71396;DHT22;59888;55.814;37.132;2023-04-20T08:29:07;20.99;18.38
71396;DHT22;59888;55.814;37.132;2023-04-20T08:31:33;21.25;18.35
71396;DHT22;59888;55.814;37.132;2023-04-20T08:33:59;21.39;18.00
71396;DHT22;59888;55.814;37.132;2023-04-20T08:36:26;21.51;17.45
71396;DHT22;59888;55.814;37.132;2023-04-20T08:38:56;21.55;17.47
71396;DHT22;59888;55.814;37.132;2023-04-20T08:41:24;21.62;15.21
71396;DHT22;59888;55.814;37.132;2023-04-20T08:43:50;21.62;16.03
71396;DHT22;59888;55.814;37.132;2023-04-20T08:46:16;21.68;16.58
71396;DHT22;59888;55.814;37.132;2023-04-20T08:48:44;21.87;16.06
71396;DHT22;59888;55.814;37.132;2023-04-20T08:51:11;21.95;15.91
71396;DHT22;59888;55.814;37.132;2023-04-20T08:53:39;21.96;16.68
71396;DHT22;59888;55.814;37.132;2023-04-20T08:56:05;22.11;16.65
71396;DHT22;59888;55.814;37.132;2023-04-20T08:58:31;22.16;16.42
71396;DHT22;59888;55.814;37.132;2023-04-20T09:00:57;22.22;16.38
71396;DHT22;59888;55.814;37.132;2023-04-20T09:03:39;22.43;16.17
71396;DHT22;59888;55.814;37.132;2023-04-20T09:06:14;22.34;15.92
71396;DHT22;59888;55.814;37.132;2023-04-20T09:08:41;22.41;15.65
71396;DHT22;59888;55.814;37.132;2023-04-20T09:11:19;22.66;16.42
71396;DHT22;59888;55.814;37.132;2023-04-20T09:14:05;22.94;16.78
71396;DHT22;59888;55.814;37.132;2023-04-20T09:16:32;23.02;16.34
71396;DHT22;59888;55.814;37.132;2023-04-20T09:19:04;22.94;16.47
71396;DHT22;59888;55.814;37.132;2023-04-20T09:21:30;22.92;14.97
71396;DHT22;59888;55.814;37.132;2023-04-20T09:24:02;22.47;15.04
71396;DHT22;59888;55.814;37.132;2023-04-20T09:26:34;22.05;16.13
71396;DHT22;59888;55.814;37.132;2023-04-20T09:29:01;21.83;16.40
71396;DHT22;59888;55.814;37.132;2023-04-20T09:31:27;21.73;16.51
71396;DHT22;59888;55.814;37.132;2023-04-20T09:34:01;21.51;16.50
71396;DHT22;59888;55.814;37.132;2023-04-20T09:36:38;21.43;16.81
71396;DHT22;59888;55.814;37.132;2023-04-20T09:39:10;21.31;16.35
71396;DHT22;59888;55.814;37.132;2023-04-20T09:41:37;21.08;16.57
71396;DHT22;59888;55.814;37.132;2023-04-20T09:44:04;20.96;17.52
71396;DHT22;59888;55.814;37.132;2023-04-20T09:46:35;20.81;17.32
71396;DHT22;59888;55.814;37.132;2023-04-20T09:49:08;20.74;17.48
71396;DHT22;59888;55.814;37.132;2023-04-20T09:51:36;20.70;17.59
71396;DHT22;59888;55.814;37.132;2023-04-20T09:54:04;20.71;17.30
71396;DHT22;59888;55.814;37.132;2023-04-20T09:56:31;20.81;17.46
71396;DHT22;59888;55.814;37.132;2023-04-20T09:58:58;21.05;17.29
71396;DHT22;59888;55.814;37.132;2023-04-20T10:01:25;21.17;17.25
71396;DHT22;59888;55.814;37.132;2023-04-20T10:03:52;21.18;17.38
71396;DHT22;59888;55.814;37.132;2023-04-20T10:08:49;21.27;17.35
71396;DHT22;59888;55.814;37.132;2023-04-20T10:13:55;21.34;17.38
71396;DHT22;59888;55.814;37.132;2023-04-20T10:16:21;21.40;17.55
71396;DHT22;59888;55.814;37.132;2023-04-20T10:19:01;21.34;16.90
71396;DHT22;59888;55.814;37.132;2023-04-20T10:21:31;21.29;17.26
71396;DHT22;59888;55.814;37.132;2023-04-20T10:23:59;21.27;17.24
71396;DHT22;59888;55.814;37.132;2023-04-20T10:26:41;21.28;16.73
71396;DHT22;59888;55.814;37.132;2023-04-20T10:29:07;21.45;16.74
71396;DHT22;59888;55.814;37.132;2023-04-20T10:31:37;21.45;16.67
71396;DHT22;59888;55.814;37.132;2023-04-20T10:34:04;21.55;16.12
71396;DHT22;59888;55.814;37.132;2023-04-20T10:36:32;21.50;16.19
71396;DHT22;59888;55.814;37.132;2023-04-20T10:38:59;21.62;16.61
71396;DHT22;59888;55.814;37.132;2023-04-20T10:41:30;21.94;16.50
71396;DHT22;59888;55.814;37.132;2023-04-20T10:44:06;22.09;16.02
71396;DHT22;59888;55.814;37.132;2023-04-20T10:46:33;22.22;15.94
71396;DHT22;59888;55.814;37.132;2023-04-20T10:49:00;22.33;16.32
71396;DHT22;59888;55.814;37.132;2023-04-20T10:51:27;22.40;15.68
71396;DHT22;59888;55.814;37.132;2023-04-20T10:54:03;22.25;15.95
71396;DHT22;59888;55.814;37.132;2023-04-20T10:56:40;22.18;15.71
71396;DHT22;59888;55.814;37.132;2023-04-20T10:59:20;22.19;16.19
71396;DHT22;59888;55.814;37.132;2023-04-20T11:01:46;22.07;15.87
71396;DHT22;59888;55.814;37.132;2023-04-20T11:04:13;21.92;16.45
71396;DHT22;59888;55.814;37.132;2023-04-20T11:06:41;21.89;16.26
71396;DHT22;59888;55.814;37.132;2023-04-20T11:11:44;21.92;16.33
71396;DHT22;59888;55.814;37.132;2023-04-20T11:14:11;21.82;16.64
71396;DHT22;59888;55.814;37.132;2023-04-20T11:16:37;21.79;16.51
71396;DHT22;59888;55.814;37.132;2023-04-20T11:19:04;21.73;16.49
71396;DHT22;59888;55.814;37.132;2023-04-20T11:21:38;21.78;16.19
71396;DHT22;59888;55.814;37.132;2023-04-20T11:24:15;21.98;16.35
71396;DHT22;59888;55.814;37.132;2023-04-20T11:26:41;22.11;15.53
71396;DHT22;59888;55.814;37.132;2023-04-20T11:29:08;22.26;15.86
71396;DHT22;59888;55.814;37.132;2023-04-20T11:31:34;22.29;16.03
71396;DHT22;59888;55.814;37.132;2023-04-20T11:34:02;22.17;15.61
71396;DHT22;59888;55.814;37.132;2023-04-20T11:36:28;21.90;15.87
71396;DHT22;59888;55.814;37.132;2023-04-20T11:39:06;21.60;15.84
71396;DHT22;59888;55.814;37.132;2023-04-20T11:41:33;21.33;16.33
71396;DHT22;59888;55.814;37.132;2023-04-20T11:44:00;21.23;16.73
71396;DHT22;59888;55.814;37.132;2023-04-20T11:46:26;21.30;16.53
71396;DHT22;59888;55.814;37.132;2023-04-20T11:48:51;21.37;16.48
71396;DHT22;59888;55.814;37.132;2023-04-20T11:51:18;21.52;16.49
71396;DHT22;59888;55.814;37.132;2023-04-20T11:53:44;21.57;16.23
71396;DHT22;59888;55.814;37.132;2023-04-20T11:56:10;21.55;16.37
71396;DHT22;59888;55.814;37.132;2023-04-20T11:58:35;21.63;16.35
71396;DHT22;59888;55.814;37.132;2023-04-20T12:01:02;21.88;16.46
71396;DHT22;59888;55.814;37.132;2023-04-20T12:03:29;22.11;16.09
71396;DHT22;59888;55.814;37.132;2023-04-20T12:05:56;22.18;15.61
71396;DHT22;59888;55.814;37.132;2023-04-20T12:08:21;22.25;15.95
71396;DHT22;59888;55.814;37.132;2023-04-20T12:10:49;22.39;15.99
71396;DHT22;59888;55.814;37.132;2023-04-20T12:13:15;22.50;15.56
71396;DHT22;59888;55.814;37.132;2023-04-20T12:15:40;22.58;15.86
71396;DHT22;59888;55.814;37.132;2023-04-20T12:18:06;22.77;15.33
71396;DHT22;59888;55.814;37.132;2023-04-20T12:20:32;22.88;15.79
71396;DHT22;59888;55.814;37.132;2023-04-20T12:22:58;22.87;15.11
71396;DHT22;59888;55.814;37.132;2023-04-20T12:25:25;22.84;14.84
71396;DHT22;59888;55.814;37.132;2023-04-20T12:27:51;22.71;15.28
71396;DHT22;59888;55.814;37.132;2023-04-20T12:30:17;22.68;15.39
71396;DHT22;59888;55.814;37.132;2023-04-20T12:32:43;22.76;15.74
71396;DHT22;59888;55.814;37.132;2023-04-20T12:35:09;22.94;15.88
71396;DHT22;59888;55.814;37.132;2023-04-20T12:37:35;22.93;15.31
71396;DHT22;59888;55.814;37.132;2023-04-20T12:40:01;22.87;15.18
71396;DHT22;59888;55.814;37.132;2023-04-20T12:42:29;23.17;15.78
71396;DHT22;59888;55.814;37.132;2023-04-20T12:44:55;24.18;15.61
71396;DHT22;59888;55.814;37.132;2023-04-20T12:47:21;25.90;14.74
71396;DHT22;59888;55.814;37.132;2023-04-20T12:49:46;28.25;12.78
71396;DHT22;59888;55.814;37.132;2023-04-20T12:52:12;30.61;13.25
71396;DHT22;59888;55.814;37.132;2023-04-20T12:54:38;32.63;12.20
71396;DHT22;59888;55.814;37.132;2023-04-20T12:57:04;34.31;11.68
71396;DHT22;59888;55.814;37.132;2023-04-20T12:59:30;35.26;8.68
71396;DHT22;59888;55.814;37.132;2023-04-20T13:01:56;33.08;8.82
71396;DHT22;59888;55.814;37.132;2023-04-20T13:04:21;31.27;9.96
71396;DHT22;59888;55.814;37.132;2023-04-20T13:06:47;30.08;10.70
71396;DHT22;59888;55.814;37.132;2023-04-20T13:09:13;28.97;10.78
71396;DHT22;59888;55.814;37.132;2023-04-20T13:11:39;27.97;11.80
71396;DHT22;59888;55.814;37.132;2023-04-20T13:14:05;27.19;11.81
71396;DHT22;59888;55.814;37.132;2023-04-20T13:16:31;26.99;11.87
71396;DHT22;59888;55.814;37.132;2023-04-20T13:18:57;26.19;13.10
71396;DHT22;59888;55.814;37.132;2023-04-20T13:21:23;25.38;13.03
71396;DHT22;59888;55.814;37.132;2023-04-20T13:23:49;24.71;13.57
71396;DHT22;59888;55.814;37.132;2023-04-20T13:26:15;24.11;13.73
71396;DHT22;59888;55.814;37.132;2023-04-20T13:28:41;23.52;14.13
71396;DHT22;59888;55.814;37.132;2023-04-20T13:31:07;23.02;14.19
71396;DHT22;59888;55.814;37.132;2023-04-20T13:33:33;22.52;14.39
71396;DHT22;59888;55.814;37.132;2023-04-20T13:35:59;22.18;15.10
71396;DHT22;59888;55.814;37.132;2023-04-20T13:38:25;21.89;14.91
71396;DHT22;59888;55.814;37.132;2023-04-20T13:40:51;21.54;15.08
71396;DHT22;59888;55.814;37.132;2023-04-20T13:43:17;21.30;15.72
71396;DHT22;59888;55.814;37.132;2023-04-20T13:45:43;21.07;15.77
71396;DHT22;59888;55.814;37.132;2023-04-20T13:48:08;20.87;16.04
71396;DHT22;59888;55.814;37.132;2023-04-20T13:50:34;20.68;16.35
71396;DHT22;59888;55.814;37.132;2023-04-20T13:53:00;20.55;16.46
71396;DHT22;59888;55.814;37.132;2023-04-20T13:55:27;20.47;16.65
71396;DHT22;59888;55.814;37.132;2023-04-20T13:57:53;20.35;16.80
71396;DHT22;59888;55.814;37.132;2023-04-20T14:00:19;20.26;16.93
71396;DHT22;59888;55.814;37.132;2023-04-20T14:02:45;20.11;17.03
71396;DHT22;59888;55.814;37.132;2023-04-20T14:05:11;19.97;17.19
71396;DHT22;59888;55.814;37.132;2023-04-20T14:07:37;19.87;17.32
71396;DHT22;59888;55.814;37.132;2023-04-20T14:10:03;19.76;17.37
71396;DHT22;59888;55.814;37.132;2023-04-20T14:12:31;19.75;17.58
71396;DHT22;59888;55.814;37.132;2023-04-20T14:14:58;19.73;17.58
71396;DHT22;59888;55.814;37.132;2023-04-20T14:17:24;19.71;17.62
71396;DHT22;59888;55.814;37.132;2023-04-20T14:19:51;19.73;17.61
71396;DHT22;59888;55.814;37.132;2023-04-20T14:22:17;19.81;17.51
71396;DHT22;59888;55.814;37.132;2023-04-20T14:24:43;19.84;17.48
71396;DHT22;59888;55.814;37.132;2023-04-20T14:27:12;19.85;17.45
71396;DHT22;59888;55.814;37.132;2023-04-20T14:29:38;19.88;17.45
71396;DHT22;59888;55.814;37.132;2023-04-20T14:32:04;19.90;17.35
71396;DHT22;59888;55.814;37.132;2023-04-20T14:34:30;19.96;17.33
71396;DHT22;59888;55.814;37.132;2023-04-20T14:36:55;20.05;17.28
71396;DHT22;59888;55.814;37.132;2023-04-20T14:39:21;20.12;17.19
71396;DHT22;59888;55.814;37.132;2023-04-20T14:41:48;20.25;17.17
71396;DHT22;59888;55.814;37.132;2023-04-20T14:44:13;20.42;16.98
71396;DHT22;59888;55.814;37.132;2023-04-20T14:46:39;20.62;16.92
71396;DHT22;59888;55.814;37.132;2023-04-20T14:49:06;21.13;16.43
71396;DHT22;59888;55.814;37.132;2023-04-20T14:51:32;22.38;16.42
71396;DHT22;59888;55.814;37.132;2023-04-20T14:53:58;23.59;15.58
71396;DHT22;59888;55.814;37.132;2023-04-20T14:56:24;24.46;14.85
71396;DHT22;59888;55.814;37.132;2023-04-20T14:58:50;25.59;14.62
71396;DHT22;59888;55.814;37.132;2023-04-20T15:01:15;27.15;13.62
71396;DHT22;59888;55.814;37.132;2023-04-20T15:03:41;28.60;12.60
71396;DHT22;59888;55.814;37.132;2023-04-20T15:06:07;29.75;12.22
71396;DHT22;59888;55.814;37.132;2023-04-20T15:08:33;30.42;11.32
71396;DHT22;59888;55.814;37.132;2023-04-20T15:10:59;30.95;10.39
71396;DHT22;59888;55.814;37.132;2023-04-20T15:13:26;31.19;10.85
71396;DHT22;59888;55.814;37.132;2023-04-20T15:15:52;31.39;10.51
71396;DHT22;59888;55.814;37.132;2023-04-20T15:18:18;31.36;10.51
71396;DHT22;59888;55.814;37.132;2023-04-20T15:20:44;31.73;10.49
71396;DHT22;59888;55.814;37.132;2023-04-20T15:23:11;32.11;10.07
71396;DHT22;59888;55.814;37.132;2023-04-20T15:25:37;32.16;9.69
71396;DHT22;59888;55.814;37.132;2023-04-20T15:28:03;32.00;10.01